Time;durP1;ratioP1;P1;durP2;ratioP2;P2;SDS_P1;SDS_P2;PMS_P1;PMS_P2;Temp;Humidity;BMP_temperature;BMP_pressure;BME280_temperature;BME280_humidity;BME280_pressure;Samples;Min_cycle;Max_cycle;Signal;HPM_P1;HPM_P2
2021/10/20 00:00:19;;;;;;;13.70;9.43;;;11.50;99.90;;;;;;5032922;28;20203;-64
2021/10/20 00:02:49;;;;;;;12.53;9.23;;;11.50;99.90;;;;;;5032885;28;20203;-64
2021/10/20 00:05:16;;;;;;;12.80;9.20;;;11.50;99.90;;;;;;5032509;28;20322;-66
2021/10/20 00:07:43;;;;;;;12.83;9.27;;;11.50;99.90;;;;;;5032961;28;20228;-64
2021/10/20 00:10:10;;;;;;;11.63;9.00;;;11.50;99.90;;;;;;5033120;28;20207;-66
2021/10/20 00:12:38;;;;;;;11.37;8.60;;;11.50;99.90;;;;;;5032123;28;20253;-66
2021/10/20 00:15:07;;;;;;;12.30;8.60;;;11.60;99.90;;;;;;5032329;28;20207;-67
2021/10/20 00:17:36;;;;;;;14.07;9.10;;;11.50;99.90;;;;;;5032347;28;20658;-66
2021/10/20 00:20:11;;;;;;;10.87;8.27;;;11.50;99.90;;;;;;5032884;28;20194;-66
2021/10/20 00:22:39;;;;;;;13.33;9.60;;;11.50;99.90;;;;;;5032310;28;20307;-65
2021/10/20 00:25:07;;;;;;;12.10;8.70;;;11.60;99.90;;;;;;5033049;28;20298;-65
2021/10/20 00:27:34;;;;;;;13.17;9.23;;;11.60;99.90;;;;;;5032589;28;20277;-66
2021/10/20 00:30:01;;;;;;;12.17;9.50;;;11.60;99.90;;;;;;5032234;28;20214;-65
2021/10/20 00:32:28;;;;;;;15.83;10.63;;;11.60;99.90;;;;;;5032898;28;20655;-65
2021/10/20 00:34:56;;;;;;;13.90;9.00;;;11.60;99.90;;;;;;5032066;28;20644;-65
2021/10/20 00:37:23;;;;;;;13.20;9.27;;;11.60;99.90;;;;;;5032355;28;20290;-66
2021/10/20 00:39:50;;;;;;;13.93;8.83;;;11.60;99.90;;;;;;5032677;28;20293;-64
2021/10/20 00:42:19;;;;;;;11.87;9.00;;;11.60;99.90;;;;;;5031864;28;20209;-65
2021/10/20 00:44:48;;;;;;;11.40;8.67;;;11.70;99.90;;;;;;5032466;28;20203;-66
2021/10/20 00:47:15;;;;;;;12.40;8.53;;;11.60;99.90;;;;;;5032449;28;20222;-66
2021/10/20 00:49:44;;;;;;;12.03;7.90;;;11.70;99.90;;;;;;5032110;28;20207;-65
2021/10/20 00:52:12;;;;;;;11.37;9.07;;;11.70;99.90;;;;;;5031993;28;20241;-66
2021/10/20 00:54:40;;;;;;;12.83;9.03;;;11.70;99.90;;;;;;5032166;28;20225;-66
2021/10/20 00:57:07;;;;;;;12.60;8.77;;;11.70;99.90;;;;;;5030818;28;20246;-65
2021/10/20 00:59:35;;;;;;;11.50;8.70;;;11.70;99.90;;;;;;5032088;28;20644;-65
2021/10/20 01:02:02;;;;;;;12.30;8.40;;;11.70;99.90;;;;;;5032369;28;20217;-66
2021/10/20 01:04:29;;;;;;;12.10;8.93;;;11.70;99.90;;;;;;5031771;28;20667;-65
2021/10/20 01:06:56;;;;;;;11.50;8.70;;;11.70;99.90;;;;;;5031475;28;20227;-65
2021/10/20 01:09:25;;;;;;;11.77;9.37;;;11.70;99.90;;;;;;5031699;28;20651;-66
2021/10/20 01:11:52;;;;;;;11.83;8.30;;;11.70;99.90;;;;;;5031877;28;20217;-66
2021/10/20 01:14:20;;;;;;;11.97;9.00;;;11.70;99.90;;;;;;5031457;28;20244;-65
2021/10/20 01:16:47;;;;;;;11.23;7.90;;;11.70;99.90;;;;;;5031677;28;20210;-65
2021/10/20 01:19:15;;;;;;;13.00;8.87;;;11.70;99.90;;;;;;5031771;28;20229;-65
2021/10/20 01:21:43;;;;;;;11.23;8.90;;;11.70;99.90;;;;;;5031250;28;20214;-64
2021/10/20 01:24:10;;;;;;;11.17;8.37;;;11.70;99.90;;;;;;5031556;28;20564;-66
2021/10/20 01:26:37;;;;;;;14.07;9.10;;;11.80;99.90;;;;;;5030921;28;20237;-65
2021/10/20 01:29:04;;;;;;;15.10;8.50;;;11.70;99.90;;;;;;5031216;28;20632;-65
2021/10/20 01:31:31;;;;;;;14.17;8.80;;;11.70;99.90;;;;;;5030505;28;20202;-65
2021/10/20 01:33:57;;;;;;;13.37;8.87;;;11.80;99.90;;;;;;5030881;28;20290;-66
2021/10/20 01:36:24;;;;;;;12.03;9.00;;;11.80;99.90;;;;;;5031050;28;20194;-64
2021/10/20 01:38:53;;;;;;;12.00;9.17;;;11.80;99.90;;;;;;5031418;28;20199;-65
2021/10/20 01:41:19;;;;;;;14.20;9.30;;;11.80;99.90;;;;;;5030675;28;20599;-64
2021/10/20 01:43:48;;;;;;;13.60;8.83;;;11.80;99.90;;;;;;5030961;28;20221;-64
2021/10/20 01:46:17;;;;;;;11.63;8.50;;;11.80;99.90;;;;;;5030869;28;20677;-65
2021/10/20 01:48:45;;;;;;;10.63;8.17;;;11.80;99.90;;;;;;5031112;28;20226;-64
2021/10/20 01:51:11;;;;;;;11.47;8.40;;;11.90;99.90;;;;;;5030803;28;20242;-65
2021/10/20 01:53:38;;;;;;;10.67;8.10;;;11.90;99.90;;;;;;5030892;28;20202;-65
2021/10/20 01:56:07;;;;;;;11.13;7.83;;;11.90;99.90;;;;;;5030442;28;20246;-63
2021/10/20 01:58:34;;;;;;;10.23;7.90;;;11.90;99.90;;;;;;5031210;28;20199;-65
2021/10/20 02:01:07;;;;;;;11.33;8.17;;;11.90;99.90;;;;;;5030834;28;20214;-64
2021/10/20 02:03:34;;;;;;;11.20;8.63;;;11.90;99.90;;;;;;5030324;28;20301;-65
2021/10/20 02:06:01;;;;;;;10.80;8.20;;;11.90;99.90;;;;;;5030390;28;20210;-66
2021/10/20 02:08:28;;;;;;;13.07;8.50;;;11.90;99.90;;;;;;5030819;28;20219;-65
2021/10/20 02:10:55;;;;;;;9.97;7.97;;;11.90;99.90;;;;;;5030559;28;20214;-66
2021/10/20 02:13:23;;;;;;;10.97;8.33;;;11.90;99.90;;;;;;5030846;28;20210;-64
2021/10/20 02:15:52;;;;;;;10.30;8.03;;;12.00;99.90;;;;;;5024714;28;20297;-64
2021/10/20 02:18:19;;;;;;;10.57;8.60;;;12.00;99.90;;;;;;5031483;28;20199;-65
2021/10/20 02:20:46;;;;;;;11.97;8.70;;;12.00;99.90;;;;;;5030554;28;20206;-64
2021/10/20 02:23:14;;;;;;;11.93;8.57;;;12.00;99.90;;;;;;5029941;28;20217;-66
2021/10/20 02:25:40;;;;;;;12.23;8.37;;;12.00;99.90;;;;;;5030580;28;20281;-64
2021/10/20 02:28:07;;;;;;;12.03;8.40;;;12.10;99.90;;;;;;5029506;28;20234;-65
2021/10/20 02:30:35;;;;;;;11.77;8.20;;;12.00;99.90;;;;;;5030697;28;20203;-65
2021/10/20 02:33:03;;;;;;;13.27;8.13;;;12.00;99.90;;;;;;5030079;28;20598;-65
2021/10/20 02:35:30;;;;;;;9.67;8.13;;;12.10;99.90;;;;;;5030693;28;20682;-65
2021/10/20 02:37:57;;;;;;;13.33;8.30;;;12.00;99.90;;;;;;5030627;28;20206;-66
2021/10/20 02:40:24;;;;;;;11.00;8.43;;;12.00;99.90;;;;;;5031104;28;20224;-64
2021/10/20 02:42:50;;;;;;;11.40;8.10;;;12.10;99.90;;;;;;5030006;28;20305;-66
2021/10/20 02:45:18;;;;;;;9.60;7.97;;;12.10;99.90;;;;;;5030408;28;20210;-66
2021/10/20 02:47:46;;;;;;;13.97;8.87;;;12.00;99.90;;;;;;5030472;28;20593;-66
2021/10/20 02:50:14;;;;;;;12.07;8.33;;;12.00;99.90;;;;;;5030299;28;20198;-66
2021/10/20 02:52:41;;;;;;;12.00;8.47;;;12.00;99.90;;;;;;5030165;28;20282;-64
2021/10/20 02:55:09;;;;;;;12.33;9.07;;;12.00;99.90;;;;;;5030167;28;20210;-66
2021/10/20 02:57:36;;;;;;;12.63;8.97;;;11.90;99.90;;;;;;5020995;28;20570;-65
2021/10/20 03:00:04;;;;;;;13.13;8.77;;;11.90;99.90;;;;;;5025102;28;20651;-65
2021/10/20 03:02:31;;;;;;;11.57;9.53;;;11.90;99.90;;;;;;5030382;28;20687;-65
2021/10/20 03:04:59;;;;;;;9.80;7.63;;;12.00;99.90;;;;;;5029932;28;20210;-66
2021/10/20 03:07:26;;;;;;;14.10;9.30;;;11.80;99.90;;;;;;5029311;28;20236;-66
2021/10/20 03:09:53;;;;;;;10.80;8.90;;;11.80;99.90;;;;;;5030200;28;20312;-64
2021/10/20 03:12:19;;;;;;;14.57;8.60;;;11.80;99.90;;;;;;5029603;28;20394;-65
2021/10/20 03:14:47;;;;;;;10.90;8.77;;;11.80;99.90;;;;;;5030106;28;20211;-65
2021/10/20 03:17:16;;;;;;;11.77;8.60;;;11.80;99.90;;;;;;5029823;28;20286;-65
2021/10/20 03:19:43;;;;;;;14.47;9.13;;;11.70;99.90;;;;;;5030509;28;20573;-65
2021/10/20 03:22:11;;;;;;;11.70;8.43;;;11.80;99.90;;;;;;5033172;28;20311;-65
2021/10/20 03:24:38;;;;;;;11.27;8.60;;;11.70;99.90;;;;;;5034061;28;20211;-65
2021/10/20 03:27:05;;;;;;;10.17;7.83;;;11.70;99.90;;;;;;5033746;28;20551;-65
2021/10/20 03:29:32;;;;;;;9.90;8.50;;;11.70;99.90;;;;;;5033800;28;20687;-65
2021/10/20 03:31:59;;;;;;;11.60;8.03;;;11.70;99.90;;;;;;5032841;28;20217;-65
2021/10/20 03:34:25;;;;;;;10.00;8.30;;;11.70;99.90;;;;;;5027473;28;20293;-65
2021/10/20 03:36:52;;;;;;;11.70;7.70;;;11.80;99.90;;;;;;5032619;28;20210;-65
2021/10/20 03:39:20;;;;;;;9.43;8.40;;;11.70;99.90;;;;;;5033470;28;20209;-65
2021/10/20 03:41:47;;;;;;;11.03;7.70;;;11.70;99.90;;;;;;5031616;28;20210;-64
2021/10/20 03:44:14;;;;;;;12.50;8.63;;;11.70;99.90;;;;;;5032856;28;20223;-65
2021/10/20 03:46:41;;;;;;;11.17;7.93;;;11.70;99.90;;;;;;5033210;28;20647;-65
2021/10/20 03:49:08;;;;;;;11.57;8.20;;;11.70;99.90;;;;;;5033357;28;20317;-65
2021/10/20 03:51:35;;;;;;;8.70;7.20;;;11.70;99.90;;;;;;5033060;28;20221;-65
2021/10/20 03:54:01;;;;;;;8.93;7.40;;;11.70;99.90;;;;;;5033584;28;20202;-65
2021/10/20 03:56:30;;;;;;;8.97;7.03;;;11.70;99.90;;;;;;5032869;28;20246;-66
2021/10/20 03:58:56;;;;;;;8.67;7.53;;;11.80;99.90;;;;;;5033427;28;20199;-66
2021/10/20 04:01:23;;;;;;;10.60;7.10;;;11.80;99.90;;;;;;5033500;28;20634;-65
2021/10/20 04:03:50;;;;;;;10.33;8.10;;;11.80;99.90;;;;;;5032533;28;20198;-64
2021/10/20 04:06:17;;;;;;;11.43;8.23;;;11.70;99.90;;;;;;5032220;28;20577;-65
2021/10/20 04:08:44;;;;;;;10.30;7.23;;;11.80;99.90;;;;;;5032583;28;20230;-65
2021/10/20 04:11:11;;;;;;;9.77;6.90;;;11.80;99.90;;;;;;5033013;28;20203;-66
2021/10/20 04:13:39;;;;;;;9.60;7.57;;;11.80;99.90;;;;;;5033190;28;20301;-65
2021/10/20 04:16:06;;;;;;;10.97;7.47;;;11.80;99.90;;;;;;5032028;28;20221;-64
2021/10/20 04:18:33;;;;;;;10.07;7.20;;;11.90;99.90;;;;;;5032985;28;20210;-65
2021/10/20 04:21:00;;;;;;;9.33;7.40;;;11.80;99.90;;;;;;5032509;28;20310;-65
2021/10/20 04:23:27;;;;;;;11.07;7.57;;;11.90;99.90;;;;;;5032847;28;20607;-64
2021/10/20 04:25:53;;;;;;;8.87;7.23;;;11.90;99.90;;;;;;5032140;28;20222;-65
2021/10/20 04:28:20;;;;;;;10.67;7.67;;;11.90;99.90;;;;;;5031999;28;20229;-66
2021/10/20 04:30:48;;;;;;;10.10;7.23;;;11.90;99.90;;;;;;5032988;28;20222;-65
2021/10/20 04:33:15;;;;;;;9.37;7.23;;;11.80;99.90;;;;;;5031358;28;20290;-65
2021/10/20 04:35:42;;;;;;;11.23;7.87;;;11.80;99.90;;;;;;5032184;28;20221;-66
2021/10/20 04:38:09;;;;;;;12.70;7.40;;;11.90;99.90;;;;;;5031391;28;20625;-65
2021/10/20 04:40:36;;;;;;;8.13;6.60;;;11.80;99.90;;;;;;5032766;28;20221;-66
2021/10/20 04:43:03;;;;;;;10.73;7.27;;;11.90;99.90;;;;;;5032353;28;20210;-66
2021/10/20 04:45:30;;;;;;;9.10;6.67;;;11.90;99.90;;;;;;5032279;28;20217;-65
2021/10/20 04:47:58;;;;;;;7.90;6.13;;;11.90;99.90;;;;;;5031742;28;20580;-66
2021/10/20 04:50:25;;;;;;;10.33;6.60;;;11.90;99.90;;;;;;5021488;28;20213;-64
2021/10/20 04:52:52;;;;;;;9.73;6.40;;;11.90;99.90;;;;;;5031813;28;20287;-66
2021/10/20 04:55:19;;;;;;;7.03;5.93;;;12.10;99.90;;;;;;5032874;28;20217;-68
2021/10/20 04:57:49;;;;;;;7.37;6.57;;;12.00;99.90;;;;;;5031360;28;20611;-67
2021/10/20 05:00:17;;;;;;;9.80;6.93;;;12.00;99.90;;;;;;5030870;28;20264;-67
2021/10/20 05:02:44;;;;;;;8.00;6.43;;;12.00;99.90;;;;;;5028418;28;20217;-69
2021/10/20 05:05:12;;;;;;;8.37;6.60;;;12.00;99.90;;;;;;5031032;28;20234;-69
2021/10/20 05:07:50;;;;;;;8.33;6.57;;;12.10;99.90;;;;;;5032472;28;20213;-68
2021/10/20 05:10:17;;;;;;;8.10;6.20;;;12.10;99.90;;;;;;5031748;28;20203;-69
2021/10/20 05:12:44;;;;;;;9.33;6.33;;;12.10;99.90;;;;;;5028866;28;20249;-69
2021/10/20 05:15:12;;;;;;;8.77;6.17;;;12.00;99.90;;;;;;5032706;28;20209;-70
2021/10/20 05:17:40;;;;;;;8.63;6.27;;;12.10;99.90;;;;;;5031978;28;20217;-69
2021/10/20 05:20:08;;;;;;;7.87;5.93;;;12.10;99.90;;;;;;5031882;28;20207;-68
2021/10/20 05:22:37;;;;;;;8.97;6.77;;;12.10;99.90;;;;;;5031737;28;20614;-69
2021/10/20 05:25:05;;;;;;;8.17;6.33;;;12.10;99.90;;;;;;5021905;28;20659;-70
2021/10/20 05:27:32;;;;;;;7.20;5.80;;;12.10;99.90;;;;;;5031851;28;20221;-66
2021/10/20 05:29:59;;;;;;;8.97;6.47;;;12.10;99.90;;;;;;5031556;28;20313;-68
2021/10/20 05:32:27;;;;;;;11.27;6.33;;;12.20;99.90;;;;;;5031590;28;20911;-70
2021/10/20 05:34:54;;;;;;;9.70;6.20;;;12.20;99.90;;;;;;5032074;28;20209;-71
2021/10/20 05:37:21;;;;;;;8.17;5.73;;;12.20;99.90;;;;;;5027426;28;20205;-69
2021/10/20 05:39:50;;;;;;;7.87;6.40;;;12.30;99.90;;;;;;5032571;28;20203;-69
2021/10/20 05:42:17;;;;;;;9.10;6.43;;;12.30;99.90;;;;;;5031516;28;20202;-71
2021/10/20 05:44:44;;;;;;;10.27;6.47;;;12.30;99.90;;;;;;5031758;28;20210;-69
2021/10/20 05:47:11;;;;;;;7.67;6.17;;;12.30;99.90;;;;;;5032094;28;20641;-70
2021/10/20 05:49:38;;;;;;;6.33;5.67;;;12.30;99.90;;;;;;5032579;28;20237;-71
2021/10/20 05:52:06;;;;;;;6.83;6.13;;;12.40;99.90;;;;;;5030286;28;20203;-71
2021/10/20 05:54:33;;;;;;;8.37;6.60;;;12.40;99.90;;;;;;5031878;28;20206;-70
2021/10/20 05:57:01;;;;;;;8.30;5.90;;;12.50;99.90;;;;;;5031318;28;20242;-71
2021/10/20 05:59:28;;;;;;;8.03;5.87;;;12.40;99.90;;;;;;5032401;28;20639;-70
2021/10/20 06:01:55;;;;;;;7.10;5.80;;;12.50;99.90;;;;;;5031548;28;20297;-69
2021/10/20 06:04:22;;;;;;;6.77;6.07;;;12.50;99.90;;;;;;5031980;28;20653;-71
2021/10/20 06:06:48;;;;;;;7.60;5.73;;;12.50;99.90;;;;;;5032882;28;20658;-71
2021/10/20 06:09:15;;;;;;;9.67;5.93;;;12.60;99.90;;;;;;5030629;28;20265;-71
2021/10/20 06:11:42;;;;;;;8.60;6.17;;;12.60;99.90;;;;;;5032733;28;20297;-70
2021/10/20 06:14:11;;;;;;;10.93;6.70;;;12.60;99.90;;;;;;5032092;28;20207;-68
2021/10/20 06:16:41;;;;;;;10.27;5.63;;;12.70;99.90;;;;;;5031722;28;20669;-69
2021/10/20 06:19:10;;;;;;;10.90;6.30;;;12.70;99.90;;;;;;5032094;28;20717;-69
2021/10/20 06:21:37;;;;;;;10.47;6.70;;;12.70;99.90;;;;;;5032007;28;20237;-69
2021/10/20 06:24:04;;;;;;;7.33;5.63;;;12.80;99.90;;;;;;5031294;28;20721;-70
2021/10/20 06:26:32;;;;;;;8.87;6.13;;;12.80;99.90;;;;;;5030976;28;20645;-69
2021/10/20 06:28:59;;;;;;;11.53;6.47;;;12.80;99.90;;;;;;5031550;28;20230;-67
2021/10/20 06:31:27;;;;;;;8.73;6.43;;;12.90;99.90;;;;;;5027866;28;20260;-66
2021/10/20 06:33:54;;;;;;;9.27;6.10;;;12.90;99.90;;;;;;5030245;28;20242;-65
2021/10/20 06:36:22;;;;;;;7.67;5.87;;;12.90;99.90;;;;;;5026043;28;20206;-66
2021/10/20 06:38:49;;;;;;;10.43;6.23;;;12.90;99.90;;;;;;5030172;28;20226;-67
2021/10/20 06:41:16;;;;;;;10.40;6.43;;;12.90;99.90;;;;;;5030828;28;20213;-67
2021/10/20 06:43:43;;;;;;;7.80;6.20;;;13.00;99.90;;;;;;5027015;28;20665;-67
2021/10/20 06:46:10;;;;;;;10.30;6.10;;;13.00;99.90;;;;;;5030654;28;20313;-68
2021/10/20 06:48:39;;;;;;;8.43;6.30;;;12.90;99.90;;;;;;5030236;28;20236;-67
2021/10/20 06:51:06;;;;;;;7.27;6.13;;;13.00;99.90;;;;;;5031108;28;20600;-68
2021/10/20 06:53:33;;;;;;;9.57;6.20;;;13.00;99.90;;;;;;5033363;28;20285;-68
2021/10/20 06:56:00;;;;;;;8.47;6.60;;;13.00;99.90;;;;;;5032846;28;20237;-66
2021/10/20 06:58:27;;;;;;;11.07;6.10;;;13.10;99.90;;;;;;5035766;28;20705;-69
2021/10/20 07:00:54;;;;;;;7.77;5.67;;;13.10;99.90;;;;;;5033455;28;20242;-70
2021/10/20 07:03:21;;;;;;;9.77;6.07;;;13.10;99.90;;;;;;5034673;28;20242;-68
2021/10/20 07:05:49;;;;;;;9.20;5.87;;;13.10;99.90;;;;;;5033138;28;20265;-67
2021/10/20 07:08:16;;;;;;;7.53;6.70;;;13.20;99.90;;;;;;5035774;28;20788;-68
2021/10/20 07:10:43;;;;;;;10.93;6.70;;;13.10;99.90;;;;;;5036139;28;20277;-68
2021/10/20 07:13:10;;;;;;;11.93;7.30;;;13.20;99.90;;;;;;5036005;28;20722;-68
2021/10/20 07:15:37;;;;;;;10.00;7.07;;;13.20;99.90;;;;;;5035348;28;20210;-71
2021/10/20 07:18:05;;;;;;;6.83;6.13;;;13.20;99.90;;;;;;5034369;28;20207;-69
2021/10/20 07:20:32;;;;;;;7.93;6.60;;;13.30;99.90;;;;;;5035408;28;20321;-69
2021/10/20 07:23:00;;;;;;;11.53;6.53;;;13.30;99.90;;;;;;5035888;28;20215;-70
2021/10/20 07:25:27;;;;;;;8.07;6.77;;;13.30;99.90;;;;;;5037564;28;20673;-69
2021/10/20 07:27:54;;;;;;;7.07;6.37;;;13.30;99.90;;;;;;5033857;28;20667;-69
2021/10/20 07:30:21;;;;;;;10.63;6.67;;;13.40;99.90;;;;;;5030552;28;20752;-68
2021/10/20 07:32:48;;;;;;;7.93;5.67;;;13.40;99.90;;;;;;5032323;28;20265;-67
2021/10/20 07:35:16;;;;;;;7.13;5.43;;;13.40;99.90;;;;;;5033136;28;20202;-68
2021/10/20 07:37:44;;;;;;;9.23;6.13;;;13.50;99.90;;;;;;5027489;28;20660;-69
2021/10/20 07:40:14;;;;;;;11.60;6.17;;;13.60;99.90;;;;;;5031584;28;20613;-67
2021/10/20 07:42:44;;;;;;;6.77;5.83;;;13.70;99.90;;;;;;5032381;28;20670;-69
2021/10/20 07:45:14;;;;;;;9.03;6.03;;;13.70;99.90;;;;;;5026987;28;20238;-67
2021/10/20 07:47:42;;;;;;;8.23;6.37;;;13.80;99.90;;;;;;5032043;28;20202;-67
2021/10/20 07:50:10;;;;;;;8.07;5.93;;;13.80;99.90;;;;;;5025415;28;20237;-68
2021/10/20 07:52:37;;;;;;;9.57;6.70;;;13.90;99.90;;;;;;5032699;28;20224;-69
2021/10/20 07:55:06;;;;;;;6.93;6.07;;;14.00;99.90;;;;;;5033074;28;20640;-69
2021/10/20 07:57:35;;;;;;;7.83;5.73;;;14.10;99.90;;;;;;5032350;28;20234;-68
2021/10/20 08:00:04;;;;;;;6.37;5.73;;;14.20;99.90;;;;;;5029890;28;20195;-68
2021/10/20 08:02:31;;;;;;;9.17;6.00;;;14.20;99.90;;;;;;5032356;28;20213;-68
2021/10/20 08:04:58;;;;;;;8.40;5.73;;;14.30;99.90;;;;;;5033891;28;20625;-68
2021/10/20 08:07:25;;;;;;;9.60;5.93;;;14.30;99.90;;;;;;5033478;28;20202;-69
2021/10/20 08:09:52;;;;;;;8.00;6.13;;;14.40;99.90;;;;;;5033411;28;20306;-68
2021/10/20 08:12:20;;;;;;;8.57;6.57;;;14.50;99.90;;;;;;5033460;28;20210;-70
2021/10/20 08:14:52;;;;;;;8.87;5.60;;;14.60;99.90;;;;;;5031995;28;20207;-69
2021/10/20 08:17:20;;;;;;;8.13;5.73;;;14.70;99.90;;;;;;5031786;28;20212;-70
2021/10/20 08:19:47;;;;;;;8.97;5.70;;;14.80;99.90;;;;;;5032836;28;20292;-68
2021/10/20 08:22:14;;;;;;;6.87;5.53;;;14.90;99.90;;;;;;5033158;28;20589;-71
2021/10/20 08:24:41;;;;;;;8.20;5.73;;;15.00;99.90;;;;;;5032450;28;20210;-69
2021/10/20 08:27:08;;;;;;;7.20;4.97;;;15.10;99.90;;;;;;5033000;28;20832;-68
2021/10/20 08:29:36;;;;;;;7.90;5.17;;;15.10;99.90;;;;;;5031929;28;20280;-69
2021/10/20 08:32:05;;;;;;;6.13;5.50;;;15.20;99.90;;;;;;5031425;28;20230;-67
2021/10/20 08:34:32;;;;;;;6.30;5.23;;;15.30;99.90;;;;;;5023291;28;20210;-68
2021/10/20 08:36:59;;;;;;;9.43;5.23;;;15.40;99.90;;;;;;5030731;28;20217;-68
2021/10/20 08:39:26;;;;;;;7.63;4.97;;;15.40;99.90;;;;;;5030682;28;20294;-68
2021/10/20 08:41:54;;;;;;;8.20;5.53;;;15.50;99.90;;;;;;5030871;28;20290;-67
2021/10/20 08:44:22;;;;;;;7.57;5.27;;;15.60;99.90;;;;;;5029586;28;20960;-67
2021/10/20 08:46:50;;;;;;;10.63;5.40;;;15.80;99.90;;;;;;5029835;28;20217;-68
2021/10/20 08:49:19;;;;;;;5.87;4.63;;;16.10;99.90;;;;;;5030581;28;20705;-67
2021/10/20 08:51:46;;;;;;;8.03;5.20;;;16.40;99.90;;;;;;5031456;28;20217;-68
2021/10/20 08:54:14;;;;;;;7.00;5.83;;;16.80;99.90;;;;;;5030687;28;20217;-67
2021/10/20 08:56:44;;;;;;;6.67;5.20;;;17.30;99.90;;;;;;5029158;28;20360;-68
2021/10/20 08:59:11;;;;;;;8.77;4.93;;;17.80;99.90;;;;;;5031546;28;20587;-67
2021/10/20 09:01:38;;;;;;;8.30;4.85;;;18.30;99.90;;;;;;5031217;28;20238;-68
2021/10/20 09:04:06;;;;;;;7.80;4.53;;;18.70;99.90;;;;;;5029768;28;20629;-68
2021/10/20 09:06:35;;;;;;;5.97;4.90;;;19.00;99.90;;;;;;5028199;28;20213;-69
2021/10/20 09:09:04;;;;;;;5.18;4.68;;;19.20;99.90;;;;;;5028475;28;20218;-68
2021/10/20 09:11:33;;;;;;;6.68;4.45;;;19.70;99.90;;;;;;5031428;28;20671;-67
2021/10/20 09:14:01;;;;;;;6.68;4.80;;;20.10;99.90;;;;;;5030922;28;20202;-67
2021/10/20 09:16:29;;;;;;;8.18;5.20;;;20.80;99.90;;;;;;5031472;28;20631;-69
2021/10/20 09:18:58;;;;;;;4.57;4.10;;;21.50;99.90;;;;;;5029599;28;20655;-67
2021/10/20 09:21:26;;;;;;;4.97;4.35;;;21.50;99.90;;;;;;5030361;28;20207;-68
2021/10/20 09:23:55;;;;;;;5.65;4.50;;;21.50;99.90;;;;;;5031091;28;20211;-67
2021/10/20 09:26:28;;;;;;;5.25;4.25;;;21.80;99.90;;;;;;5030072;28;20202;-67
2021/10/20 09:28:56;;;;;;;6.05;4.75;;;22.10;98.70;;;;;;5030417;28;20239;-67
2021/10/20 09:31:26;;;;;;;5.93;4.53;;;22.30;97.20;;;;;;5030094;28;20630;-68
2021/10/20 09:33:53;;;;;;;5.93;4.45;;;22.30;96.90;;;;;;5031346;28;20574;-67
2021/10/20 09:36:22;;;;;;;5.68;4.22;;;22.30;96.50;;;;;;5030863;28;20629;-68
2021/10/20 09:38:49;;;;;;;7.05;5.10;;;22.30;95.80;;;;;;5031124;28;20670;-68
2021/10/20 09:41:18;;;;;;;8.23;4.47;;;22.50;95.70;;;;;;5031190;28;20647;-68
2021/10/20 09:43:52;;;;;;;5.38;4.85;;;22.60;94.70;;;;;;5030900;28;20206;-68
2021/10/20 09:46:31;;;;;;;7.55;4.38;;;22.70;94.20;;;;;;5031060;28;20288;-68
2021/10/20 09:49:01;;;;;;;7.28;4.80;;;22.90;93.70;;;;;;5019522;28;20660;-68
2021/10/20 09:51:28;;;;;;;6.72;4.45;;;23.10;93.20;;;;;;5030572;28;20222;-68
2021/10/20 09:53:55;;;;;;;7.45;4.72;;;23.20;92.40;;;;;;5018095;28;20293;-68
2021/10/20 09:56:27;;;;;;;7.05;4.45;;;23.30;91.80;;;;;;5031799;28;20321;-68
2021/10/20 09:58:54;;;;;;;4.63;3.97;;;23.40;91.40;;;;;;5030061;28;20284;-68
2021/10/20 10:01:24;;;;;;;6.07;4.05;;;23.50;90.80;;;;;;5031389;28;20329;-68
2021/10/20 10:03:51;;;;;;;5.10;4.60;;;23.60;90.50;;;;;;5029706;28;20210;-69
2021/10/20 10:06:19;;;;;;;4.72;4.15;;;23.70;90.40;;;;;;5031656;28;20256;-68
2021/10/20 10:08:47;;;;;;;5.25;4.65;;;23.90;89.50;;;;;;5031106;28;20289;-68
2021/10/20 10:11:14;;;;;;;6.20;4.53;;;24.20;88.30;;;;;;5030854;28;20593;-69
2021/10/20 10:13:52;;;;;;;7.97;4.32;;;24.50;86.20;;;;;;5030549;28;20609;-67
2021/10/20 10:16:23;;;;;;;5.00;4.50;;;24.60;85.40;;;;;;5030084;28;20199;-70
2021/10/20 10:18:53;;;;;;;6.82;4.45;;;24.80;85.00;;;;;;5031272;28;20217;-69
2021/10/20 10:21:32;;;;;;;4.63;4.18;;;25.10;83.80;;;;;;5031602;28;20582;-68
2021/10/20 10:24:01;;;;;;;5.78;3.63;;;25.50;80.70;;;;;;5030948;28;20626;-67
2021/10/20 10:26:29;;;;;;;6.13;3.97;;;25.90;79.40;;;;;;5030782;28;20238;-68
2021/10/20 10:29:09;;;;;;;5.35;3.88;;;26.30;77.30;;;;;;5031488;28;20210;-68
2021/10/20 10:31:38;;;;;;;4.70;4.13;;;26.30;73.90;;;;;;5034809;28;20228;-69
2021/10/20 10:34:05;;;;;;;5.75;4.20;;;26.00;73.90;;;;;;5025769;28;20298;-68
2021/10/20 10:36:33;;;;;;;7.63;4.00;;;26.00;75.90;;;;;;5035748;28;20264;-68
2021/10/20 10:39:08;;;;;;;4.65;3.78;;;26.10;74.70;;;;;;5035198;28;20234;-67
2021/10/20 10:41:37;;;;;;;8.65;3.92;;;26.10;73.90;;;;;;5033876;28;20198;-68
2021/10/20 10:44:14;;;;;;;5.15;4.28;;;26.20;73.40;;;;;;5031177;28;20234;-68
2021/10/20 10:46:47;;;;;;;4.78;4.13;;;26.20;72.10;;;;;;5032134;28;20206;-69
2021/10/20 10:49:28;;;;;;;7.20;4.60;;;26.00;71.90;;;;;;5034911;28;20202;-68
2021/10/20 10:52:07;;;;;;;8.13;4.32;;;25.70;72.80;;;;;;5030928;28;20253;-68
2021/10/20 10:54:39;;;;;;;4.85;4.35;;;25.60;73.40;;;;;;5030534;28;20221;-67
2021/10/20 10:57:13;;;;;;;4.55;3.90;;;25.50;73.50;;;;;;5034268;28;20234;-68
2021/10/20 10:59:53;;;;;;;4.53;4.00;;;25.60;73.60;;;;;;5032299;28;20654;-68
2021/10/20 11:02:41;;;;;;;11.90;3.80;;;25.70;74.10;;;;;;5033514;28;20198;-70
2021/10/20 11:05:09;;;;;;;4.65;3.95;;;26.00;73.70;;;;;;5029091;28;20444;-68
2021/10/20 11:07:37;;;;;;;5.75;3.63;;;26.30;71.10;;;;;;5032981;28;20210;-69
2021/10/20 11:10:06;;;;;;;4.10;3.70;;;26.30;70.20;;;;;;5034311;28;20237;-68
2021/10/20 11:12:33;;;;;;;6.40;3.80;;;26.40;70.50;;;;;;5034234;28;20207;-70
2021/10/20 11:15:01;;;;;;;5.32;3.47;;;26.60;70.10;;;;;;5035963;28;20213;-69
2021/10/20 11:17:28;;;;;;;6.20;3.90;;;26.90;69.10;;;;;;5032184;28;20629;-69
2021/10/20 11:19:56;;;;;;;4.90;4.00;;;27.20;68.50;;;;;;5021063;28;20699;-69
2021/10/20 11:22:25;;;;;;;3.80;3.42;;;27.50;67.10;;;;;;5034216;28;20540;-69
2021/10/20 11:24:53;;;;;;;6.47;4.30;;;27.80;65.90;;;;;;5035564;28;20308;-68
2021/10/20 11:27:24;;;;;;;4.72;4.22;;;28.00;65.00;;;;;;5035753;28;20591;-70
2021/10/20 11:29:53;;;;;;;4.85;4.10;;;28.20;64.10;;;;;;5035076;28;20236;-69
2021/10/20 11:32:23;;;;;;;4.40;4.00;;;28.50;63.00;;;;;;5033916;28;20303;-68
2021/10/20 11:34:51;;;;;;;4.55;4.05;;;28.70;61.80;;;;;;5032291;28;20238;-69
2021/10/20 11:37:22;;;;;;;4.70;4.10;;;28.90;60.90;;;;;;5035042;28;20203;-67
2021/10/20 11:39:55;;;;;;;6.00;4.43;;;28.90;60.20;;;;;;5035574;28;20214;-69
2021/10/20 11:42:24;;;;;;;5.40;3.75;;;28.90;60.20;;;;;;5032785;28;20245;-69
2021/10/20 11:44:52;;;;;;;5.93;3.45;;;29.10;60.00;;;;;;5033797;28;20221;-69
2021/10/20 11:47:21;;;;;;;4.70;3.45;;;29.40;59.00;;;;;;5034706;28;20337;-70
2021/10/20 11:49:50;;;;;;;6.85;3.70;;;29.50;58.40;;;;;;5034671;28;20210;-69
2021/10/20 11:52:19;;;;;;;5.43;3.67;;;29.10;57.50;;;;;;5033788;28;20207;-70
2021/10/20 11:54:46;;;;;;;4.35;3.83;;;28.80;58.20;;;;;;5026526;28;20203;-68
2021/10/20 11:57:16;;;;;;;6.30;3.80;;;28.50;59.00;;;;;;5031090;28;20270;-69
2021/10/20 11:59:44;;;;;;;7.72;3.83;;;28.20;59.20;;;;;;5026437;28;20725;-67
2021/10/20 12:02:12;;;;;;;4.55;3.60;;;28.40;59.50;;;;;;5031276;28;20294;-68
2021/10/20 12:04:42;;;;;;;14.18;5.45;;;28.60;59.30;;;;;;5033864;28;20206;-67
2021/10/20 12:07:12;;;;;;;5.60;3.50;;;28.60;58.80;;;;;;5032451;28;20203;-68
2021/10/20 12:09:42;;;;;;;3.95;3.35;;;28.50;58.80;;;;;;5030007;28;20213;-68
2021/10/20 12:12:11;;;;;;;5.78;4.32;;;28.60;59.10;;;;;;5031975;28;20241;-65
2021/10/20 12:14:39;;;;;;;5.82;3.92;;;28.30;59.60;;;;;;5033386;28;20673;-64
2021/10/20 12:17:07;;;;;;;5.30;3.35;;;28.70;58.90;;;;;;5032624;28;20214;-66
2021/10/20 12:19:36;;;;;;;5.72;4.00;;;28.90;58.00;;;;;;5032459;28;20207;-66
2021/10/20 12:22:08;;;;;;;5.05;3.83;;;29.20;57.80;;;;;;5031969;28;20280;-69
2021/10/20 12:24:38;;;;;;;6.22;3.90;;;29.20;57.40;;;;;;5032765;28;20205;-66
2021/10/20 12:27:07;;;;;;;5.63;3.80;;;29.00;57.60;;;;;;5033165;28;20594;-68
2021/10/20 12:29:39;;;;;;;6.38;3.90;;;28.80;57.80;;;;;;5033155;28;20677;-67
2021/10/20 12:32:08;;;;;;;5.07;3.45;;;28.40;57.90;;;;;;5031725;28;20214;-69
2021/10/20 12:34:35;;;;;;;6.75;3.78;;;27.90;58.80;;;;;;5031788;28;20246;-68
2021/10/20 12:37:04;;;;;;;4.70;3.80;;;27.40;59.80;;;;;;5032459;28;20253;-68
2021/10/20 12:39:33;;;;;;;5.85;3.67;;;27.20;60.30;;;;;;5032567;28;20245;-69
2021/10/20 12:42:03;;;;;;;4.38;3.97;;;26.60;60.70;;;;;;5031867;28;20203;-68
2021/10/20 12:44:32;;;;;;;10.55;4.30;;;26.00;62.50;;;;;;5033024;28;20217;-67
2021/10/20 12:47:00;;;;;;;4.68;3.70;;;25.30;64.20;;;;;;5033021;28;20655;-69